sensor_id;sensor_type;location;lat;lon;timestamp;pressure;altitude;pressure_sealevel;temperature;humidity
64521;BME280;50896;46.714;17.322;2022-12-18T00:01:31;102007.03;;;-1.02;100.00
64521;BME280;50896;46.714;17.322;2022-12-18T00:04:02;102014.09;;;-1.05;100.00
64521;BME280;50896;46.714;17.322;2022-12-18T00:06:30;102006.53;;;-1.14;100.00
64521;BME280;50896;46.714;17.322;2022-12-18T00:08:57;102013.75;;;-1.22;100.00
64521;BME280;50896;46.714;17.322;2022-12-18T00:11:27;102021.41;;;-1.17;100.00
64521;BME280;50896;46.714;17.322;2022-12-18T00:13:55;102015.25;;;-1.15;100.00
64521;BME280;50896;46.714;17.322;2022-12-18T00:16:25;102022.47;;;-1.23;100.00
64521;BME280;50896;46.714;17.322;2022-12-18T00:18:55;102024.63;;;-1.38;100.00
64521;BME280;50896;46.714;17.322;2022-12-18T00:21:25;102029.03;;;-1.40;100.00
64521;BME280;50896;46.714;17.322;2022-12-18T00:23:52;102029.13;;;-1.43;100.00
64521;BME280;50896;46.714;17.322;2022-12-18T00:26:22;102038.69;;;-1.42;100.00
64521;BME280;50896;46.714;17.322;2022-12-18T00:28:53;102030.84;;;-1.42;100.00
64521;BME280;50896;46.714;17.322;2022-12-18T00:31:22;102042.09;;;-1.40;100.00
64521;BME280;50896;46.714;17.322;2022-12-18T00:33:54;102040.56;;;-1.47;100.00
64521;BME280;50896;46.714;17.322;2022-12-18T00:36:25;102038.13;;;-1.53;100.00
64521;BME280;50896;46.714;17.322;2022-12-18T00:38:53;102055.75;;;-1.61;100.00
64521;BME280;50896;46.714;17.322;2022-12-18T00:41:21;102057.16;;;-1.49;100.00
64521;BME280;50896;46.714;17.322;2022-12-18T00:44:09;102053.78;;;-1.53;100.00
64521;BME280;50896;46.714;17.322;2022-12-18T00:46:36;102063.28;;;-1.50;100.00
64521;BME280;50896;46.714;17.322;2022-12-18T00:49:03;102066.06;;;-1.57;100.00
64521;BME280;50896;46.714;17.322;2022-12-18T00:51:30;102064.38;;;-1.59;100.00
64521;BME280;50896;46.714;17.322;2022-12-18T00:53:57;102068.47;;;-1.49;100.00
64521;BME280;50896;46.714;17.322;2022-12-18T00:56:24;102069.53;;;-1.56;100.00
64521;BME280;50896;46.714;17.322;2022-12-18T00:58:52;102068.81;;;-1.61;100.00
64521;BME280;50896;46.714;17.322;2022-12-18T01:01:18;102073.88;;;-1.57;100.00
64521;BME280;50896;46.714;17.322;2022-12-18T01:03:46;102074.72;;;-1.55;100.00
64521;BME280;50896;46.714;17.322;2022-12-18T01:06:15;102078.22;;;-1.56;100.00
64521;BME280;50896;46.714;17.322;2022-12-18T01:08:42;102075.56;;;-1.54;100.00
64521;BME280;50896;46.714;17.322;2022-12-18T01:11:16;102080.72;;;-1.52;100.00
64521;BME280;50896;46.714;17.322;2022-12-18T01:13:44;102076.53;;;-1.58;100.00
64521;BME280;50896;46.714;17.322;2022-12-18T01:16:16;102078.94;;;-1.50;100.00
64521;BME280;50896;46.714;17.322;2022-12-18T01:18:44;102093.75;;;-1.52;100.00
64521;BME280;50896;46.714;17.322;2022-12-18T01:21:14;102091.28;;;-1.57;100.00
64521;BME280;50896;46.714;17.322;2022-12-18T01:23:42;102088.28;;;-1.43;100.00
64521;BME280;50896;46.714;17.322;2022-12-18T01:26:11;102096.31;;;-1.51;100.00
64521;BME280;50896;46.714;17.322;2022-12-18T01:28:39;102095.38;;;-1.48;100.00
64521;BME280;50896;46.714;17.322;2022-12-18T01:31:19;102108.63;;;-1.55;100.00
64521;BME280;50896;46.714;17.322;2022-12-18T01:33:46;102094.66;;;-1.53;100.00
64521;BME280;50896;46.714;17.322;2022-12-18T01:36:18;102105.91;;;-1.51;100.00
64521;BME280;50896;46.714;17.322;2022-12-18T01:38:46;102111.00;;;-1.47;100.00
64521;BME280;50896;46.714;17.322;2022-12-18T01:41:15;102106.25;;;-1.64;100.00
64521;BME280;50896;46.714;17.322;2022-12-18T01:43:46;102116.91;;;-1.72;100.00
64521;BME280;50896;46.714;17.322;2022-12-18T01:46:13;102118.66;;;-1.72;100.00
64521;BME280;50896;46.714;17.322;2022-12-18T01:48:41;102113.88;;;-1.89;100.00
64521;BME280;50896;46.714;17.322;2022-12-18T01:51:10;102122.69;;;-1.93;100.00
64521;BME280;50896;46.714;17.322;2022-12-18T01:53:40;102128.78;;;-1.94;100.00
64521;BME280;50896;46.714;17.322;2022-12-18T01:56:08;102130.00;;;-2.08;100.00
64521;BME280;50896;46.714;17.322;2022-12-18T01:58:48;102144.31;;;-2.24;100.00
64521;BME280;50896;46.714;17.322;2022-12-18T02:01:17;102132.03;;;-2.19;100.00
64521;BME280;50896;46.714;17.322;2022-12-18T02:03:44;102126.88;;;-2.22;100.00
64521;BME280;50896;46.714;17.322;2022-12-18T02:11:23;102130.72;;;-2.02;100.00
64521;BME280;50896;46.714;17.322;2022-12-18T02:17:37;102132.13;;;-1.89;100.00
64521;BME280;50896;46.714;17.322;2022-12-18T02:23:06;102144.50;;;-1.97;100.00
64521;BME280;50896;46.714;17.322;2022-12-18T02:28:12;102140.47;;;-2.09;100.00
64521;BME280;50896;46.714;17.322;2022-12-18T02:30:41;102159.78;;;-2.18;100.00
64521;BME280;50896;46.714;17.322;2022-12-18T02:33:11;102159.72;;;-2.15;100.00
64521;BME280;50896;46.714;17.322;2022-12-18T02:35:40;102166.91;;;-2.26;100.00
64521;BME280;50896;46.714;17.322;2022-12-18T02:38:08;102156.56;;;-2.29;100.00
64521;BME280;50896;46.714;17.322;2022-12-18T02:40:37;102164.50;;;-2.34;100.00
64521;BME280;50896;46.714;17.322;2022-12-18T02:43:10;102167.44;;;-2.48;100.00
64521;BME280;50896;46.714;17.322;2022-12-18T02:45:54;102164.53;;;-2.73;100.00
64521;BME280;50896;46.714;17.322;2022-12-18T02:48:31;102159.25;;;-2.70;100.00
64521;BME280;50896;46.714;17.322;2022-12-18T02:53:36;102166.13;;;-2.67;100.00
64521;BME280;50896;46.714;17.322;2022-12-18T02:56:10;102160.50;;;-2.49;100.00
64521;BME280;50896;46.714;17.322;2022-12-18T02:59:02;102169.91;;;-2.43;100.00
64521;BME280;50896;46.714;17.322;2022-12-18T03:01:54;102179.28;;;-2.34;100.00
64521;BME280;50896;46.714;17.322;2022-12-18T03:06:51;102190.41;;;-2.28;100.00
64521;BME280;50896;46.714;17.322;2022-12-18T03:09:42;102190.00;;;-2.47;100.00
64521;BME280;50896;46.714;17.322;2022-12-18T03:12:13;102184.69;;;-2.44;100.00
64521;BME280;50896;46.714;17.322;2022-12-18T03:15:19;102190.03;;;-2.50;100.00
64521;BME280;50896;46.714;17.322;2022-12-18T03:18:01;102206.66;;;-2.54;100.00
64521;BME280;50896;46.714;17.322;2022-12-18T03:20:31;102212.06;;;-2.63;100.00
64521;BME280;50896;46.714;17.322;2022-12-18T03:23:09;102208.81;;;-2.75;100.00
64521;BME280;50896;46.714;17.322;2022-12-18T03:25:40;102208.91;;;-2.79;100.00
64521;BME280;50896;46.714;17.322;2022-12-18T03:28:12;102207.38;;;-2.89;100.00
64521;BME280;50896;46.714;17.322;2022-12-18T03:30:43;102210.00;;;-2.89;100.00
64521;BME280;50896;46.714;17.322;2022-12-18T03:33:16;102219.59;;;-2.92;100.00
64521;BME280;50896;46.714;17.322;2022-12-18T03:35:48;102220.44;;;-2.91;100.00
64521;BME280;50896;46.714;17.322;2022-12-18T03:38:17;102214.31;;;-2.88;100.00
64521;BME280;50896;46.714;17.322;2022-12-18T03:43:58;102232.25;;;-2.75;100.00
64521;BME280;50896;46.714;17.322;2022-12-18T03:49:24;102225.06;;;-2.63;100.00
64521;BME280;50896;46.714;17.322;2022-12-18T03:51:59;102235.41;;;-2.60;100.00
64521;BME280;50896;46.714;17.322;2022-12-18T03:54:29;102231.97;;;-2.61;100.00
64521;BME280;50896;46.714;17.322;2022-12-18T03:57:19;102240.50;;;-2.54;100.00
64521;BME280;50896;46.714;17.322;2022-12-18T03:59:52;102234.31;;;-2.50;100.00
64521;BME280;50896;46.714;17.322;2022-12-18T04:02:24;102232.69;;;-2.54;100.00
64521;BME280;50896;46.714;17.322;2022-12-18T04:04:57;102228.47;;;-2.61;100.00
64521;BME280;50896;46.714;17.322;2022-12-18T04:07:26;102233.84;;;-2.67;100.00
64521;BME280;50896;46.714;17.322;2022-12-18T04:09:57;102239.03;;;-2.67;100.00
64521;BME280;50896;46.714;17.322;2022-12-18T04:12:26;102235.63;;;-2.71;100.00
64521;BME280;50896;46.714;17.322;2022-12-18T04:14:53;102245.34;;;-2.78;100.00
64521;BME280;50896;46.714;17.322;2022-12-18T04:17:21;102245.47;;;-2.85;100.00
64521;BME280;50896;46.714;17.322;2022-12-18T04:19:48;102248.44;;;-3.02;100.00
64521;BME280;50896;46.714;17.322;2022-12-18T04:22:16;102258.94;;;-3.09;100.00
64521;BME280;50896;46.714;17.322;2022-12-18T04:24:46;102267.72;;;-3.14;100.00
64521;BME280;50896;46.714;17.322;2022-12-18T04:27:25;102266.28;;;-3.29;100.00
64521;BME280;50896;46.714;17.322;2022-12-18T04:29:52;102269.69;;;-3.27;100.00
64521;BME280;50896;46.714;17.322;2022-12-18T04:32:19;102260.19;;;-3.30;100.00
64521;BME280;50896;46.714;17.322;2022-12-18T04:34:47;102266.31;;;-3.32;100.00
64521;BME280;50896;46.714;17.322;2022-12-18T04:37:14;102259.44;;;-3.36;100.00
64521;BME280;50896;46.714;17.322;2022-12-18T04:39:41;102259.38;;;-3.32;100.00
64521;BME280;50896;46.714;17.322;2022-12-18T04:42:15;102255.22;;;-3.44;100.00
64521;BME280;50896;46.714;17.322;2022-12-18T04:44:42;102262.03;;;-3.35;100.00
64521;BME280;50896;46.714;17.322;2022-12-18T04:47:08;102262.03;;;-3.36;100.00
64521;BME280;50896;46.714;17.322;2022-12-18T04:49:35;102263.03;;;-3.44;100.00
64521;BME280;50896;46.714;17.322;2022-12-18T04:52:02;102267.69;;;-3.61;100.00
64521;BME280;50896;46.714;17.322;2022-12-18T04:54:29;102277.09;;;-3.54;100.00
64521;BME280;50896;46.714;17.322;2022-12-18T04:56:56;102278.00;;;-3.56;100.00
64521;BME280;50896;46.714;17.322;2022-12-18T04:59:22;102285.94;;;-3.66;100.00
64521;BME280;50896;46.714;17.322;2022-12-18T05:01:49;102299.16;;;-3.80;100.00
64521;BME280;50896;46.714;17.322;2022-12-18T05:04:16;102298.41;;;-3.86;100.00
64521;BME280;50896;46.714;17.322;2022-12-18T05:06:43;102293.31;;;-3.94;100.00
64521;BME280;50896;46.714;17.322;2022-12-18T05:09:10;102304.44;;;-3.84;100.00
64521;BME280;50896;46.714;17.322;2022-12-18T05:11:37;102302.09;;;-4.01;100.00
64521;BME280;50896;46.714;17.322;2022-12-18T05:14:03;102302.97;;;-4.04;100.00
64521;BME280;50896;46.714;17.322;2022-12-18T05:16:30;102298.59;;;-3.99;100.00
64521;BME280;50896;46.714;17.322;2022-12-18T05:18:57;102298.03;;;-4.21;100.00
64521;BME280;50896;46.714;17.322;2022-12-18T05:21:24;102307.47;;;-4.15;100.00
64521;BME280;50896;46.714;17.322;2022-12-18T05:23:50;102300.56;;;-4.16;100.00
64521;BME280;50896;46.714;17.322;2022-12-18T05:26:18;102302.06;;;-4.00;100.00
64521;BME280;50896;46.714;17.322;2022-12-18T05:28:45;102299.50;;;-4.01;100.00
64521;BME280;50896;46.714;17.322;2022-12-18T05:31:12;102309.06;;;-4.06;100.00
64521;BME280;50896;46.714;17.322;2022-12-18T05:33:39;102315.94;;;-4.02;100.00
64521;BME280;50896;46.714;17.322;2022-12-18T05:36:08;102308.16;;;-4.02;100.00
64521;BME280;50896;46.714;17.322;2022-12-18T05:38:36;102320.44;;;-4.14;100.00
64521;BME280;50896;46.714;17.322;2022-12-18T05:41:04;102320.50;;;-4.17;100.00
64521;BME280;50896;46.714;17.322;2022-12-18T05:43:31;102319.59;;;-4.17;100.00
64521;BME280;50896;46.714;17.322;2022-12-18T05:46:07;102324.75;;;-4.13;100.00
64521;BME280;50896;46.714;17.322;2022-12-18T05:48:34;102329.19;;;-4.19;100.00
64521;BME280;50896;46.714;17.322;2022-12-18T05:51:09;102341.34;;;-4.21;100.00
64521;BME280;50896;46.714;17.322;2022-12-18T05:53:37;102346.63;;;-4.29;100.00
64521;BME280;50896;46.714;17.322;2022-12-18T05:56:12;102348.31;;;-4.25;100.00
64521;BME280;50896;46.714;17.322;2022-12-18T05:58:39;102358.78;;;-4.34;100.00
64521;BME280;50896;46.714;17.322;2022-12-18T06:01:11;102349.34;;;-4.41;100.00
64521;BME280;50896;46.714;17.322;2022-12-18T06:03:38;102357.19;;;-4.43;100.00
64521;BME280;50896;46.714;17.322;2022-12-18T06:06:32;102353.84;;;-4.54;100.00
64521;BME280;50896;46.714;17.322;2022-12-18T06:08:59;102359.00;;;-4.51;100.00
64521;BME280;50896;46.714;17.322;2022-12-18T06:11:27;102355.53;;;-4.50;100.00
64521;BME280;50896;46.714;17.322;2022-12-18T06:13:55;102356.41;;;-4.51;100.00
64521;BME280;50896;46.714;17.322;2022-12-18T06:16:25;102346.00;;;-4.50;100.00
64521;BME280;50896;46.714;17.322;2022-12-18T06:18:53;102353.75;;;-4.48;100.00
64521;BME280;50896;46.714;17.322;2022-12-18T06:21:19;102359.88;;;-4.51;100.00
64521;BME280;50896;46.714;17.322;2022-12-18T06:23:46;102365.13;;;-4.57;100.00
64521;BME280;50896;46.714;17.322;2022-12-18T06:26:13;102362.56;;;-4.60;100.00
64521;BME280;50896;46.714;17.322;2022-12-18T06:28:40;102369.50;;;-4.62;100.00
64521;BME280;50896;46.714;17.322;2022-12-18T06:31:08;102354.94;;;-4.75;100.00
64521;BME280;50896;46.714;17.322;2022-12-18T06:33:36;102367.06;;;-4.74;100.00
64521;BME280;50896;46.714;17.322;2022-12-18T06:36:06;102368.78;;;-4.76;100.00
64521;BME280;50896;46.714;17.322;2022-12-18T06:38:35;102370.59;;;-4.85;100.00
64521;BME280;50896;46.714;17.322;2022-12-18T06:41:08;102381.84;;;-4.84;100.00
64521;BME280;50896;46.714;17.322;2022-12-18T06:43:35;102399.88;;;-4.72;100.00
64521;BME280;50896;46.714;17.322;2022-12-18T06:46:03;102387.78;;;-4.71;100.00
64521;BME280;50896;46.714;17.322;2022-12-18T06:48:30;102394.69;;;-4.72;100.00
64521;BME280;50896;46.714;17.322;2022-12-18T06:50:58;102398.03;;;-4.62;100.00
64521;BME280;50896;46.714;17.322;2022-12-18T06:53:25;102391.16;;;-4.66;100.00
64521;BME280;50896;46.714;17.322;2022-12-18T06:55:51;102406.69;;;-4.58;100.00
64521;BME280;50896;46.714;17.322;2022-12-18T06:58:18;102404.84;;;-4.49;100.00
64521;BME280;50896;46.714;17.322;2022-12-18T07:00:45;102414.34;;;-4.46;100.00
64521;BME280;50896;46.714;17.322;2022-12-18T07:03:11;102421.22;;;-4.42;100.00
64521;BME280;50896;46.714;17.322;2022-12-18T07:05:41;102422.91;;;-4.38;100.00
64521;BME280;50896;46.714;17.322;2022-12-18T07:08:08;102422.00;;;-4.37;100.00
64521;BME280;50896;46.714;17.322;2022-12-18T07:10:42;102433.97;;;-4.22;100.00
64521;BME280;50896;46.714;17.322;2022-12-18T07:13:13;102427.88;;;-4.18;100.00
64521;BME280;50896;46.714;17.322;2022-12-18T07:15:41;102435.63;;;-4.16;100.00
64521;BME280;50896;46.714;17.322;2022-12-18T07:18:08;102444.25;;;-4.11;100.00
64521;BME280;50896;46.714;17.322;2022-12-18T07:20:35;102449.44;;;-4.11;100.00
64521;BME280;50896;46.714;17.322;2022-12-18T07:23:03;102445.84;;;-4.01;100.00
64521;BME280;50896;46.714;17.322;2022-12-18T07:25:34;102448.34;;;-3.91;100.00
64521;BME280;50896;46.714;17.322;2022-12-18T07:28:01;102449.19;;;-3.88;100.00
64521;BME280;50896;46.714;17.322;2022-12-18T07:30:28;102455.13;;;-3.81;100.00
64521;BME280;50896;46.714;17.322;2022-12-18T07:32:55;102462.03;;;-3.79;100.00
64521;BME280;50896;46.714;17.322;2022-12-18T07:35:22;102464.41;;;-3.62;100.00
64521;BME280;50896;46.714;17.322;2022-12-18T07:37:51;102468.63;;;-3.51;100.00
64521;BME280;50896;46.714;17.322;2022-12-18T07:40:18;102478.94;;;-3.45;100.00
64521;BME280;50896;46.714;17.322;2022-12-18T07:42:44;102474.50;;;-3.37;100.00
64521;BME280;50896;46.714;17.322;2022-12-18T07:45:11;102484.78;;;-3.28;100.00
64521;BME280;50896;46.714;17.322;2022-12-18T07:47:38;102485.66;;;-3.29;100.00
64521;BME280;50896;46.714;17.322;2022-12-18T07:50:07;102488.25;;;-3.29;100.00
64521;BME280;50896;46.714;17.322;2022-12-18T07:52:34;102499.41;;;-3.20;100.00
64521;BME280;50896;46.714;17.322;2022-12-18T07:55:02;102494.19;;;-3.19;100.00
64521;BME280;50896;46.714;17.322;2022-12-18T07:57:29;102497.50;;;-3.09;100.00
64521;BME280;50896;46.714;17.322;2022-12-18T08:00:16;102495.66;;;-3.02;100.00
64521;BME280;50896;46.714;17.322;2022-12-18T08:02:43;102495.75;;;-3.09;100.00
64521;BME280;50896;46.714;17.322;2022-12-18T08:05:10;102500.06;;;-3.07;100.00
64521;BME280;50896;46.714;17.322;2022-12-18T08:07:37;102505.94;;;-2.92;100.00
64521;BME280;50896;46.714;17.322;2022-12-18T08:10:05;102506.63;;;-2.82;100.00
64521;BME280;50896;46.714;17.322;2022-12-18T08:12:32;102504.13;;;-2.88;100.00
64521;BME280;50896;46.714;17.322;2022-12-18T08:14:59;102505.91;;;-2.93;100.00
64521;BME280;50896;46.714;17.322;2022-12-18T08:17:26;102497.25;;;-2.92;100.00
64521;BME280;50896;46.714;17.322;2022-12-18T08:19:53;102505.84;;;-2.87;100.00
64521;BME280;50896;46.714;17.322;2022-12-18T08:22:19;102502.19;;;-2.77;100.00
64521;BME280;50896;46.714;17.322;2022-12-18T08:24:46;102508.09;;;-2.65;100.00
64521;BME280;50896;46.714;17.322;2022-12-18T08:27:13;102508.66;;;-2.48;100.00
64521;BME280;50896;46.714;17.322;2022-12-18T08:29:54;102500.69;;;-2.40;100.00
64521;BME280;50896;46.714;17.322;2022-12-18T08:32:21;102503.31;;;-2.40;100.00
64521;BME280;50896;46.714;17.322;2022-12-18T08:34:48;102500.59;;;-2.34;100.00
64521;BME280;50896;46.714;17.322;2022-12-18T08:37:15;102500.59;;;-2.34;100.00
64521;BME280;50896;46.714;17.322;2022-12-18T08:39:41;102503.22;;;-2.34;100.00
64521;BME280;50896;46.714;17.322;2022-12-18T08:42:08;102505.56;;;-2.20;100.00
64521;BME280;50896;46.714;17.322;2022-12-18T08:44:53;102501.06;;;-2.12;100.00
64521;BME280;50896;46.714;17.322;2022-12-18T08:47:20;102508.00;;;-2.12;100.00
64521;BME280;50896;46.714;17.322;2022-12-18T08:49:47;102514.03;;;-2.09;100.00
64521;BME280;50896;46.714;17.322;2022-12-18T08:52:13;102507.88;;;-2.04;100.00
64521;BME280;50896;46.714;17.322;2022-12-18T08:54:40;102515.53;;;-1.97;100.00
64521;BME280;50896;46.714;17.322;2022-12-18T08:57:07;102512.09;;;-1.97;100.00
64521;BME280;50896;46.714;17.322;2022-12-18T08:59:34;102513.56;;;-1.84;100.00
64521;BME280;50896;46.714;17.322;2022-12-18T09:02:00;102510.78;;;-1.76;100.00
64521;BME280;50896;46.714;17.322;2022-12-18T09:04:27;102516.81;;;-1.73;100.00
64521;BME280;50896;46.714;17.322;2022-12-18T09:06:54;102520.19;;;-1.66;100.00
64521;BME280;50896;46.714;17.322;2022-12-18T09:09:21;102523.47;;;-1.58;100.00
64521;BME280;50896;46.714;17.322;2022-12-18T09:11:47;102532.75;;;-1.44;100.00
64521;BME280;50896;46.714;17.322;2022-12-18T09:14:14;102536.88;;;-1.32;100.00
64521;BME280;50896;46.714;17.322;2022-12-18T09:16:41;102544.44;;;-1.22;100.00
64521;BME280;50896;46.714;17.322;2022-12-18T09:19:08;102532.16;;;-1.16;100.00
64521;BME280;50896;46.714;17.322;2022-12-18T09:21:37;102538.88;;;-1.05;100.00
64521;BME280;50896;46.714;17.322;2022-12-18T09:24:15;102542.81;;;-0.88;100.00
64521;BME280;50896;46.714;17.322;2022-12-18T09:26:42;102536.53;;;-0.79;100.00
64521;BME280;50896;46.714;17.322;2022-12-18T09:29:13;102535.28;;;-0.64;100.00
64521;BME280;50896;46.714;17.322;2022-12-18T09:31:41;102532.63;;;-0.63;100.00
64521;BME280;50896;46.714;17.322;2022-12-18T09:34:08;102540.28;;;-0.55;100.00
64521;BME280;50896;46.714;17.322;2022-12-18T09:36:35;102538.44;;;-0.50;100.00
64521;BME280;50896;46.714;17.322;2022-12-18T09:39:02;102527.78;;;-0.42;100.00
64521;BME280;50896;46.714;17.322;2022-12-18T09:41:47;102530.91;;;-0.28;100.00
64521;BME280;50896;46.714;17.322;2022-12-18T09:44:22;102529.78;;;-0.19;100.00
64521;BME280;50896;46.714;17.322;2022-12-18T09:47:27;102523.69;;;-0.18;100.00
64521;BME280;50896;46.714;17.322;2022-12-18T09:49:58;102516.44;;;-0.10;100.00
64521;BME280;50896;46.714;17.322;2022-12-18T09:52:33;102514.63;;;-0.06;100.00
64521;BME280;50896;46.714;17.322;2022-12-18T09:55:23;102520.31;;;0.10;100.00
64521;BME280;50896;46.714;17.322;2022-12-18T09:57:56;102518.31;;;0.18;100.00
64521;BME280;50896;46.714;17.322;2022-12-18T10:00:24;102511.44;;;0.14;100.00
64521;BME280;50896;46.714;17.322;2022-12-18T10:02:57;102508.69;;;0.20;100.00
64521;BME280;50896;46.714;17.322;2022-12-18T10:05:52;102514.56;;;0.28;100.00
64521;BME280;50896;46.714;17.322;2022-12-18T10:08:26;102512.13;;;0.21;100.00
64521;BME280;50896;46.714;17.322;2022-12-18T10:11:27;102524.03;;;0.32;100.00
64521;BME280;50896;46.714;17.322;2022-12-18T10:14:07;102513.31;;;0.40;100.00
64521;BME280;50896;46.714;17.322;2022-12-18T10:16:47;102518.59;;;0.39;100.00
64521;BME280;50896;46.714;17.322;2022-12-18T10:25:04;102523.06;;;0.65;100.00
64521;BME280;50896;46.714;17.322;2022-12-18T10:27:32;102521.84;;;0.77;100.00
64521;BME280;50896;46.714;17.322;2022-12-18T10:30:03;102516.63;;;0.77;100.00
64521;BME280;50896;46.714;17.322;2022-12-18T10:32:35;102507.78;;;0.79;100.00
64521;BME280;50896;46.714;17.322;2022-12-18T10:35:02;102512.59;;;0.93;100.00
64521;BME280;50896;46.714;17.322;2022-12-18T10:37:29;102516.72;;;1.00;100.00
64521;BME280;50896;46.714;17.322;2022-12-18T10:40:15;102513.97;;;1.59;100.00
64521;BME280;50896;46.714;17.322;2022-12-18T10:43:11;102512.53;;;2.24;100.00
64521;BME280;50896;46.714;17.322;2022-12-18T10:45:38;102505.56;;;2.47;100.00
64521;BME280;50896;46.714;17.322;2022-12-18T10:48:18;102501.50;;;2.84;100.00
64521;BME280;50896;46.714;17.322;2022-12-18T10:50:48;102495.50;;;3.02;100.00
64521;BME280;50896;46.714;17.322;2022-12-18T10:53:36;102500.72;;;3.47;100.00
64521;BME280;50896;46.714;17.322;2022-12-18T10:56:06;102488.16;;;3.33;100.00
64521;BME280;50896;46.714;17.322;2022-12-18T10:58:35;102481.25;;;3.51;100.00
64521;BME280;50896;46.714;17.322;2022-12-18T11:01:09;102487.81;;;3.61;100.00
64521;BME280;50896;46.714;17.322;2022-12-18T11:03:42;102468.41;;;3.64;100.00
64521;BME280;50896;46.714;17.322;2022-12-18T11:06:17;102477.34;;;3.80;100.00
64521;BME280;50896;46.714;17.322;2022-12-18T11:08:57;102476.38;;;4.02;100.00
64521;BME280;50896;46.714;17.322;2022-12-18T11:11:25;102475.06;;;5.23;100.00
64521;BME280;50896;46.714;17.322;2022-12-18T11:14:16;102460.81;;;8.66;100.00
64521;BME280;50896;46.714;17.322;2022-12-18T11:16:47;102451.94;;;11.20;66.60
64521;BME280;50896;46.714;17.322;2022-12-18T11:19:39;102432.88;;;13.68;37.87
64521;BME280;50896;46.714;17.322;2022-12-18T11:22:25;102430.88;;;15.87;32.01
64521;BME280;50896;46.714;17.322;2022-12-18T11:30:30;102425.94;;;18.81;26.48
64521;BME280;50896;46.714;17.322;2022-12-18T11:33:17;102426.78;;;18.82;25.85
64521;BME280;50896;46.714;17.322;2022-12-18T11:35:59;102431.59;;;20.08;24.01
64521;BME280;50896;46.714;17.322;2022-12-18T11:38:32;102426.53;;;20.37;23.81
64521;BME280;50896;46.714;17.322;2022-12-18T11:41:20;102436.84;;;20.33;23.75
64521;BME280;50896;46.714;17.322;2022-12-18T11:43:55;102436.19;;;18.77;25.49
64521;BME280;50896;46.714;17.322;2022-12-18T11:46:31;102435.38;;;19.10;25.07
64521;BME280;50896;46.714;17.322;2022-12-18T11:49:14;102428.72;;;17.87;26.30
64521;BME280;50896;46.714;17.322;2022-12-18T11:51:51;102434.16;;;16.90;27.73
64521;BME280;50896;46.714;17.322;2022-12-18T11:54:20;102433.00;;;16.93;27.98
64521;BME280;50896;46.714;17.322;2022-12-18T11:57:04;102429.84;;;16.98;27.43
64521;BME280;50896;46.714;17.322;2022-12-18T12:00:04;102434.69;;;17.12;26.79
64521;BME280;50896;46.714;17.322;2022-12-18T12:11:10;102440.19;;;8.15;43.09
64521;BME280;50896;46.714;17.322;2022-12-18T12:17:30;102436.22;;;5.94;49.72
64521;BME280;50896;46.714;17.322;2022-12-18T12:19:43;102431.06;;;5.41;51.81
64521;BME280;50896;46.714;17.322;2022-12-18T12:25:02;102427.25;;;6.62;49.95
64521;BME280;50896;46.714;17.322;2022-12-18T12:33:07;102429.59;;;4.83;54.05
64521;BME280;50896;46.714;17.322;2022-12-18T12:35:52;102440.19;;;4.45;55.23
64521;BME280;50896;46.714;17.322;2022-12-18T12:38:44;102436.97;;;4.00;56.70
64521;BME280;50896;46.714;17.322;2022-12-18T12:41:21;102434.28;;;3.62;58.83
64521;BME280;50896;46.714;17.322;2022-12-18T12:44:15;102439.88;;;3.54;58.62
64521;BME280;50896;46.714;17.322;2022-12-18T12:46:44;102442.13;;;3.22;60.28
64521;BME280;50896;46.714;17.322;2022-12-18T12:49:15;102436.38;;;2.92;62.63
64521;BME280;50896;46.714;17.322;2022-12-18T12:51:47;102430.72;;;2.81;64.06
64521;BME280;50896;46.714;17.322;2022-12-18T12:54:21;102437.69;;;2.60;64.43
64521;BME280;50896;46.714;17.322;2022-12-18T13:00:09;102428.31;;;2.52;63.55
64521;BME280;50896;46.714;17.322;2022-12-18T13:02:42;102424.16;;;2.47;62.41
64521;BME280;50896;46.714;17.322;2022-12-18T13:05:40;102420.00;;;2.41;61.66
64521;BME280;50896;46.714;17.322;2022-12-18T13:08:29;102419.16;;;2.41;61.25
64521;BME280;50896;46.714;17.322;2022-12-18T13:11:01;102412.31;;;2.36;61.56
64521;BME280;50896;46.714;17.322;2022-12-18T13:13:55;102423.28;;;2.24;63.20
64521;BME280;50896;46.714;17.322;2022-12-18T13:16:24;102431.50;;;2.15;63.44
64521;BME280;50896;46.714;17.322;2022-12-18T13:18:56;102431.41;;;1.94;64.65
64521;BME280;50896;46.714;17.322;2022-12-18T13:21:33;102435.13;;;1.88;64.31
64521;BME280;50896;46.714;17.322;2022-12-18T13:24:15;102435.69;;;1.97;64.49
64521;BME280;50896;46.714;17.322;2022-12-18T13:26:48;102443.84;;;2.13;62.81
64521;BME280;50896;46.714;17.322;2022-12-18T13:29:44;102454.06;;;1.97;63.63
64521;BME280;50896;46.714;17.322;2022-12-18T13:32:22;102460.47;;;2.35;61.56
64521;BME280;50896;46.714;17.322;2022-12-18T13:37:52;102458.34;;;3.53;56.87
64521;BME280;50896;46.714;17.322;2022-12-18T13:48:22;102463.63;;;2.67;60.37
64521;BME280;50896;46.714;17.322;2022-12-18T13:50:57;102460.31;;;2.62;59.73
64521;BME280;50896;46.714;17.322;2022-12-18T13:53:33;102461.31;;;2.82;59.03
64521;BME280;50896;46.714;17.322;2022-12-18T13:56:01;102469.72;;;2.90;58.86
64521;BME280;50896;46.714;17.322;2022-12-18T13:58:28;102482.69;;;2.95;58.61
64521;BME280;50896;46.714;17.322;2022-12-18T14:00:55;102478.75;;;2.61;60.49
64521;BME280;50896;46.714;17.322;2022-12-18T14:03:26;102473.53;;;2.37;61.69
64521;BME280;50896;46.714;17.322;2022-12-18T14:06:00;102483.44;;;2.30;62.22
64521;BME280;50896;46.714;17.322;2022-12-18T14:08:33;102482.13;;;2.18;63.23